SCA weather

Sidney Municipal Airport
Sidney, Ohio, United States

Public forecast

Using degrees Fahrenheit for public forecast. Weather courtesy of forecast.io.

METAR (pilot weather report)

Closest report is Neil Armstrong Airport, 16.6 nm (30.7 km) NNW. Retrieved 2019/05/20 08:35 UTC (0 seconds ago):

KAXV 200835Z AUTO 26009KT 10SM SCT038 15/11 A2986 RMK AO2

TAF (pilot weather forecast)

Closest forecast is James M Cox Dayton International Airport, 20.6 nm (38.1 km) S. Retrieved 2019/05/20 06:30 UTC (2 hours ago):

TAF KDAY 200527Z 2006/2106 23010KT P6SM SCT060 BKN150 FM200900 26011KT P6SM SCT025 TEMPO 2011/2013 BKN025 FM201300 28013G21KT P6SM BKN035 FM210000 33008KT P6SM FEW035 SCT250